Time;durP1;ratioP1;P1;durP2;ratioP2;P2;SDS_P1;SDS_P2;PMS_P1;PMS_P2;Temp;Humidity;BMP_temperature;BMP_pressure;BME280_temperature;BME280_humidity;BME280_pressure;Samples;Min_cycle;Max_cycle;Signal;HPM_P1;HPM_P2
2022/03/15 00:06:53;;;;;;;14.13;10.90;;;6.10;99.90;;;;;;4889114;29;20044;-79
2022/03/15 00:13:06;;;;;;;14.77;11.55;;;5.80;99.90;;;;;;4888024;29;20073;-79
2022/03/15 00:19:28;;;;;;;15.07;10.65;;;5.60;99.90;;;;;;4881692;29;20123;-79
2022/03/15 00:25:59;;;;;;;14.38;11.30;;;5.60;99.90;;;;;;4881805;29;20044;-79
2022/03/15 00:36:17;;;;;;;;;;;;;;;;;;;;;
2022/03/15 00:46:09;;;;;;;14.57;10.93;;;5.20;99.90;;;;;;5064076;28;20494;-79
2022/03/15 00:55:56;;;;;;;18.45;11.25;;;5.20;99.90;;;;;;4980637;28;20026;-79
2022/03/15 01:13:16;;;;;;;15.73;11.05;;;5.20;99.90;;;;;;4961835;28;20160;-79
2022/03/15 01:26:42;;;;;;;13.75;9.63;;;5.30;99.90;;;;;;4918181;29;20047;-79
2022/03/15 01:33:06;;;;;;;13.82;9.70;;;5.30;99.90;;;;;;4922168;29;20035;-79
2022/03/15 01:42:35;;;;;;;12.88;9.68;;;5.40;99.90;;;;;;4923015;29;20062;-79
2022/03/15 01:45:27;;;;;;;11.50;10.00;;;5.40;99.90;;;;;;4930810;29;20035;-79
2022/03/15 01:58:27;;;;;;;14.52;10.18;;;5.40;99.90;;;;;;4886248;29;20499;-79
2022/03/15 02:01:35;;;;;;;13.10;10.20;;;5.30;99.90;;;;;;4887980;29;20045;-79
2022/03/15 02:18:25;;;;;;;;;;;;;;;;;;;;;
2022/03/15 02:52:55;;;;;;;;;;;;;;;;;;;;;
2022/03/15 03:44:38;;;;;;;;;;;5.10;99.90;;;;;;4851795;29;20037;-79
2022/03/15 04:07:45;;;;;;;;;;;;;;;;;;;;;
2022/03/15 04:20:32;;;;;;;15.25;9.73;;;5.30;99.90;;;;;;4979432;28;20057;-79
2022/03/15 04:30:27;;;;;;;16.38;10.35;;;5.40;99.90;;;;;;4915102;29;20605;-78
2022/03/15 04:44:21;;;;;;;11.75;9.10;;;5.40;99.90;;;;;;4826617;29;20036;-79
2022/03/15 04:51:36;;;;;;;;;;;;;;;;;;;;;
2022/03/15 04:58:28;;;;;;;15.52;10.57;;;5.30;99.90;;;;;;4749457;30;20089;-78
2022/03/15 05:08:25;;;;;;;;;;;;;;;;;;;;;
2022/03/15 05:11:21;;;;;;;;;;;;;;;;;;;;;
2022/03/15 05:14:15;;;;;;;14.48;10.02;;;5.30;99.90;;;;;;4982488;28;20041;-78
2022/03/15 05:17:01;;;;;;;13.52;10.65;;;5.30;99.90;;;;;;4978845;28;20033;-77
2022/03/15 05:20:22;;;;;;;13.48;10.32;;;5.30;99.90;;;;;;5050343;28;20553;-78
2022/03/15 05:23:12;;;;;;;14.88;9.93;;;5.30;99.90;;;;;;5020702;28;20033;-79
2022/03/15 05:26:14;;;;;;;;;;;;;;;;;;;;;
2022/03/15 05:29:19;;;;;;;11.90;9.75;;;5.20;99.90;;;;;;5104691;28;20030;-79
2022/03/15 05:32:19;;;;;;;12.98;10.15;;;5.20;99.90;;;;;;5058334;28;20040;-79
2022/03/15 05:37:56;;;;;;;13.25;10.40;;;5.30;99.90;;;;;;5049347;28;20032;-79
2022/03/15 05:40:53;;;;;;;13.77;9.80;;;5.30;99.90;;;;;;5060776;28;20044;-79
2022/03/15 05:44:01;;;;;;;15.50;10.05;;;5.40;99.90;;;;;;5083079;28;20040;-80
2022/03/15 05:46:42;;;;;;;14.75;10.20;;;5.50;99.90;;;;;;5087065;28;20040;-80
2022/03/15 05:49:17;;;;;;;12.43;10.02;;;5.60;99.90;;;;;;5098534;28;20062;-81
2022/03/15 05:51:51;;;;;;;14.18;9.73;;;5.60;99.90;;;;;;5098182;28;20060;-80
2022/03/15 05:54:24;;;;;;;15.32;9.63;;;5.70;99.90;;;;;;5103948;28;20032;-81
2022/03/15 05:56:52;;;;;;;14.77;10.07;;;5.80;99.90;;;;;;5102057;28;20501;-79
2022/03/15 05:59:32;;;;;;;12.18;9.65;;;5.90;99.90;;;;;;5097421;28;20399;-80
2022/03/15 06:02:07;;;;;;;14.52;9.77;;;5.90;99.90;;;;;;5098715;28;20031;-81
2022/03/15 06:04:42;;;;;;;16.52;9.10;;;6.10;99.90;;;;;;5083980;28;20056;-80
2022/03/15 06:07:10;;;;;;;12.23;9.63;;;6.20;99.90;;;;;;5072020;28;20028;-81
2022/03/15 06:09:39;;;;;;;12.90;10.18;;;6.30;99.90;;;;;;5082274;28;21532;-81
2022/03/15 06:12:07;;;;;;;15.82;9.63;;;6.40;99.90;;;;;;5080857;28;20564;-81
2022/03/15 06:14:33;;;;;;;13.07;10.13;;;6.50;99.90;;;;;;5060097;28;20054;-81
2022/03/15 06:17:32;;;;;;;11.05;9.73;;;6.50;99.90;;;;;;5080554;28;20209;-80
2022/03/15 06:20:05;;;;;;;14.57;10.27;;;6.60;99.90;;;;;;5053731;28;20044;-81
2022/03/15 06:22:34;;;;;;;13.35;10.15;;;6.70;99.90;;;;;;5082441;28;20356;-81
2022/03/15 06:25:16;;;;;;;14.55;10.43;;;6.80;99.90;;;;;;5079069;28;20110;-81
2022/03/15 06:28:04;;;;;;;10.70;9.23;;;6.80;99.90;;;;;;5080121;28;20360;-81
2022/03/15 06:30:44;;;;;;;17.15;10.25;;;6.90;99.90;;;;;;5053703;28;20036;-81
2022/03/15 06:33:13;;;;;;;15.18;9.48;;;7.00;99.90;;;;;;5056116;28;20020;-81
2022/03/15 06:35:47;;;;;;;11.45;8.70;;;7.10;99.90;;;;;;5077143;28;20024;-80
2022/03/15 06:41:05;;;;;;;15.13;10.03;;;7.20;99.90;;;;;;5043224;28;20423;-80
2022/03/15 06:43:34;;;;;;;12.63;10.05;;;7.40;99.90;;;;;;5081318;28;20025;-82
2022/03/15 06:46:07;;;;;;;12.82;9.68;;;7.40;99.90;;;;;;5061575;28;20032;-79
2022/03/15 06:49:05;;;;;;;;;;;;;;;;;;;;;
2022/03/15 06:51:34;;;;;;;13.88;9.23;;;7.70;99.90;;;;;;4982268;28;20190;-80
2022/03/15 06:54:29;;;;;;;11.02;9.45;;;7.80;99.90;;;;;;5084283;28;20076;-81
2022/03/15 06:57:03;;;;;;;15.38;9.55;;;8.00;99.90;;;;;;5081643;28;20450;-81
2022/03/15 06:59:29;;;;;;;26.45;13.82;;;8.20;99.90;;;;;;5083019;28;20036;-81
2022/03/15 07:02:15;;;;;;;17.45;11.80;;;8.30;99.90;;;;;;5063898;28;20033;-81
2022/03/15 07:04:41;;;;;;;16.65;12.30;;;8.50;99.90;;;;;;5077535;28;20040;-80
2022/03/15 07:07:10;;;;;;;21.10;11.27;;;8.70;99.90;;;;;;5083671;28;20582;-80
2022/03/15 07:10:46;;;;;;;21.42;12.73;;;8.80;99.90;;;;;;5077890;28;20032;-80
2022/03/15 07:12:41;;;;;;;29.27;17.48;;;9.10;99.90;;;;;;5071773;28;20567;-80
2022/03/15 07:15:17;;;;;;;19.35;13.13;;;9.30;99.90;;;;;;5080029;28;20024;-80
2022/03/15 07:17:54;;;;;;;22.00;13.57;;;9.50;99.90;;;;;;5085775;28;20016;-80
2022/03/15 07:23:08;;;;;;;19.20;10.43;;;9.90;99.90;;;;;;5079824;28;20042;-80
2022/03/15 07:25:34;;;;;;;12.05;9.18;;;10.10;99.90;;;;;;5080470;28;20042;-80
2022/03/15 07:28:01;;;;;;;18.85;10.80;;;10.30;99.90;;;;;;5084375;28;20020;-80
2022/03/15 07:30:28;;;;;;;22.58;11.77;;;10.50;99.90;;;;;;5081367;28;20709;-80
2022/03/15 07:32:59;;;;;;;17.48;10.98;;;10.70;99.90;;;;;;5086026;28;20056;-81
2022/03/15 07:35:25;;;;;;;16.38;10.20;;;10.90;99.90;;;;;;5084545;28;20029;-80
2022/03/15 07:37:55;;;;;;;19.38;10.27;;;11.10;99.90;;;;;;5085612;28;20024;-80
2022/03/15 07:40:24;;;;;;;18.23;11.80;;;11.30;99.90;;;;;;5081819;28;20042;-80
2022/03/15 07:42:52;;;;;;;18.88;9.00;;;11.50;99.90;;;;;;5064572;28;20013;-80
2022/03/15 07:45:18;;;;;;;13.65;8.60;;;11.70;99.90;;;;;;5081956;28;20039;-80
2022/03/15 07:47:44;;;;;;;16.65;9.43;;;12.00;99.90;;;;;;5076342;28;20023;-80
2022/03/15 07:50:10;;;;;;;13.90;9.32;;;12.10;99.90;;;;;;5081922;28;20441;-89
2022/03/15 07:52:36;;;;;;;10.65;7.60;;;12.30;99.90;;;;;;5082785;28;20013;-79
2022/03/15 07:55:02;;;;;;;20.10;11.55;;;12.50;99.90;;;;;;5059855;28;20029;-79
2022/03/15 07:57:28;;;;;;;16.65;10.15;;;12.70;99.90;;;;;;5083463;28;20035;-80
2022/03/15 07:59:53;;;;;;;14.20;8.95;;;12.70;99.90;;;;;;5085170;28;20043;-80
2022/03/15 08:02:20;;;;;;;13.93;8.50;;;12.90;99.90;;;;;;5083314;28;20059;-80
2022/03/15 08:04:46;;;;;;;12.38;7.70;;;13.00;99.90;;;;;;5079286;28;20044;-80
2022/03/15 08:07:12;;;;;;;16.67;7.95;;;13.20;99.90;;;;;;5082379;28;20028;-79
2022/03/15 08:09:38;;;;;;;19.27;13.23;;;13.30;99.90;;;;;;5080508;28;20035;-78
2022/03/15 08:12:05;;;;;;;13.10;8.35;;;13.40;99.90;;;;;;5077440;28;20104;-78
2022/03/15 08:14:30;;;;;;;9.40;7.00;;;13.50;99.90;;;;;;5087822;28;20021;-79
2022/03/15 08:16:56;;;;;;;17.23;9.27;;;13.60;99.90;;;;;;5082866;28;20077;-78
2022/03/15 08:19:22;;;;;;;9.63;7.25;;;13.60;99.90;;;;;;5078425;28;20032;-78
2022/03/15 08:21:48;;;;;;;9.25;7.20;;;13.70;99.90;;;;;;5059585;28;20039;-77
2022/03/15 08:24:16;;;;;;;9.85;7.68;;;13.70;99.90;;;;;;5065988;28;20020;-77
2022/03/15 08:26:42;;;;;;;19.58;12.23;;;13.80;99.90;;;;;;5081286;28;20031;-78
2022/03/15 08:29:08;;;;;;;8.85;7.10;;;13.80;99.90;;;;;;5085765;28;20024;-77
2022/03/15 08:31:37;;;;;;;10.05;8.23;;;13.80;99.90;;;;;;5080013;28;20009;-78
2022/03/15 08:34:03;;;;;;;13.30;6.32;;;13.80;99.90;;;;;;5063621;28;20117;-77
2022/03/15 08:36:28;;;;;;;11.65;6.18;;;13.50;99.90;;;;;;5061881;28;20395;-78
2022/03/15 08:38:54;;;;;;;8.02;6.00;;;13.40;99.90;;;;;;5082789;28;20033;-77
2022/03/15 08:41:21;;;;;;;7.38;6.10;;;13.40;99.90;;;;;;5078527;28;20142;-77
2022/03/15 08:43:52;;;;;;;10.15;6.05;;;13.60;99.90;;;;;;5087175;28;20478;-77
2022/03/15 08:46:26;;;;;;;10.82;5.90;;;13.80;99.90;;;;;;5080118;28;20082;-78
2022/03/15 08:48:54;;;;;;;8.48;5.95;;;14.00;99.90;;;;;;5077308;28;20501;-77
2022/03/15 08:51:32;;;;;;;12.45;6.53;;;13.60;99.90;;;;;;5088750;28;20159;-83
2022/03/15 08:54:00;;;;;;;10.23;7.30;;;13.40;99.90;;;;;;5058767;28;20474;-81
2022/03/15 08:56:46;;;;;;;15.65;7.60;;;13.20;99.90;;;;;;5085398;28;20020;-85
2022/03/15 08:59:15;;;;;;;13.88;7.07;;;12.80;99.90;;;;;;5078414;28;20017;-79
2022/03/15 09:01:56;;;;;;;11.57;6.80;;;12.60;99.90;;;;;;5084335;28;20035;-85
2022/03/15 09:04:23;;;;;;;13.93;7.13;;;12.20;99.90;;;;;;5060522;28;20330;-84
2022/03/15 09:06:51;;;;;;;14.90;7.30;;;12.10;99.90;;;;;;5063420;28;20085;-84
2022/03/15 09:09:20;;;;;;;10.35;7.22;;;11.90;99.90;;;;;;5061106;28;20025;-85
2022/03/15 09:12:37;;;;;;;10.90;8.13;;;11.80;99.90;;;;;;5063489;28;20486;-86
2022/03/15 09:15:18;;;;;;;13.13;7.18;;;11.70;99.90;;;;;;5063971;28;20036;-82
2022/03/15 09:17:44;;;;;;;10.60;7.78;;;11.60;99.90;;;;;;5083344;28;20098;-83
2022/03/15 09:20:13;;;;;;;11.10;7.75;;;11.50;99.90;;;;;;5079971;28;20103;-82
2022/03/15 09:22:52;;;;;;;13.32;7.07;;;11.50;99.90;;;;;;5077650;28;20021;-82
2022/03/15 09:25:43;;;;;;;11.85;6.45;;;11.50;99.90;;;;;;5075538;28;20024;-81
2022/03/15 09:28:12;;;;;;;12.95;7.28;;;11.50;99.90;;;;;;5067124;28;20036;-80
2022/03/15 09:30:44;;;;;;;8.32;7.13;;;11.50;99.90;;;;;;5068046;28;20031;-88
2022/03/15 09:33:13;;;;;;;9.75;7.13;;;11.50;99.90;;;;;;5070321;28;20024;-80
2022/03/15 09:35:40;;;;;;;8.40;6.70;;;11.50;99.90;;;;;;5053395;28;20031;-78
2022/03/15 09:38:13;;;;;;;17.02;8.23;;;11.60;99.90;;;;;;5073370;28;20021;-78
2022/03/15 09:40:43;;;;;;;9.20;7.20;;;11.70;99.90;;;;;;5070751;28;20048;-81
2022/03/15 09:43:31;;;;;;;11.30;6.05;;;11.80;99.90;;;;;;5073814;28;20182;-80
2022/03/15 09:46:13;;;;;;;7.32;5.40;;;11.70;99.90;;;;;;5070118;28;20123;-81
2022/03/15 09:48:44;;;;;;;10.73;6.28;;;11.60;99.90;;;;;;5073812;28;20058;-81
2022/03/15 09:51:47;;;;;;;12.90;9.13;;;11.50;99.90;;;;;;5071510;28;20111;-85
2022/03/15 10:46:24;;;;;;;8.68;6.82;;;12.60;99.90;;;;;;5092245;27;20407;-81
2022/03/15 10:49:12;;;;;;;8.82;6.05;;;12.50;99.90;;;;;;5063346;28;20472;-81
2022/03/15 10:51:50;;;;;;;8.93;6.00;;;12.60;99.90;;;;;;5058483;28;20079;-82
2022/03/15 10:54:16;;;;;;;12.35;7.10;;;12.20;99.90;;;;;;5058390;28;20029;-81
2022/03/15 10:56:53;;;;;;;7.63;6.10;;;12.20;99.90;;;;;;5066155;28;20040;-81
2022/03/15 10:59:29;;;;;;;9.45;5.35;;;12.00;99.90;;;;;;5060468;28;20033;-80
2022/03/15 11:01:55;;;;;;;11.20;5.65;;;12.20;99.90;;;;;;5059134;28;20061;-81
2022/03/15 11:04:56;;;;;;;9.65;6.47;;;12.20;99.90;;;;;;5059284;28;20033;-81
2022/03/15 11:07:28;;;;;;;8.63;6.65;;;12.10;99.90;;;;;;5057678;28;20446;-81
2022/03/15 11:10:14;;;;;;;9.63;6.72;;;12.30;99.90;;;;;;5059578;28;20076;-80
2022/03/15 11:13:15;;;;;;;10.63;6.18;;;12.20;99.90;;;;;;5055083;28;20032;-81
2022/03/15 11:16:02;;;;;;;11.90;6.25;;;12.30;99.90;;;;;;5051629;28;20107;-81
2022/03/15 11:18:30;;;;;;;8.18;5.72;;;12.50;99.90;;;;;;5058764;28;20036;-81
2022/03/15 11:21:06;;;;;;;8.68;6.53;;;12.70;99.90;;;;;;5049420;28;20075;-81
2022/03/15 11:23:45;;;;;;;10.95;6.25;;;12.70;99.90;;;;;;5057293;28;20715;-81
2022/03/15 11:26:17;;;;;;;8.95;6.40;;;12.70;99.90;;;;;;5042007;28;20120;-81
2022/03/15 11:28:47;;;;;;;12.00;6.65;;;12.50;99.90;;;;;;5035752;28;20032;-81
2022/03/15 11:31:19;;;;;;;10.40;6.82;;;12.60;99.90;;;;;;5038655;28;20508;-81
2022/03/15 11:33:47;;;;;;;9.35;5.80;;;12.50;99.90;;;;;;5036113;28;20408;-81
2022/03/15 11:36:29;;;;;;;8.02;5.97;;;12.70;99.90;;;;;;5041365;28;20034;-80
2022/03/15 11:38:58;;;;;;;8.30;5.50;;;13.00;99.90;;;;;;5036886;28;20021;-80
2022/03/15 11:41:26;;;;;;;18.88;6.32;;;12.90;99.90;;;;;;5040260;28;20488;-81
2022/03/15 11:44:54;;;;;;;9.88;6.13;;;12.80;99.90;;;;;;5036422;28;20029;-81
2022/03/15 11:47:34;;;;;;;7.32;5.57;;;12.30;99.90;;;;;;5042142;28;20052;-81
2022/03/15 11:50:24;;;;;;;10.68;6.00;;;12.10;99.90;;;;;;5039677;28;20536;-81
2022/03/15 11:53:43;;;;;;;7.47;6.28;;;12.20;99.90;;;;;;5031982;28;20032;-81
2022/03/15 11:56:37;;;;;;;12.93;6.15;;;12.50;99.90;;;;;;4967032;28;20054;-80
2022/03/15 11:59:15;;;;;;;8.38;5.55;;;12.20;99.90;;;;;;4963661;28;20070;-80
2022/03/15 12:01:48;;;;;;;15.20;6.15;;;12.10;99.90;;;;;;4964519;28;20035;-80
2022/03/15 12:04:22;;;;;;;7.28;6.45;;;12.30;99.90;;;;;;4959279;28;20082;-81
2022/03/15 12:07:00;;;;;;;6.95;5.32;;;12.20;99.90;;;;;;4981833;28;20042;-81
2022/03/15 12:09:48;;;;;;;7.85;6.13;;;12.00;99.90;;;;;;5025713;28;20396;-80
2022/03/15 12:12:22;;;;;;;7.07;5.78;;;12.10;99.90;;;;;;5022985;28;20567;-81
2022/03/15 12:14:51;;;;;;;9.43;6.00;;;12.00;99.90;;;;;;5021436;28;20064;-80
2022/03/15 12:17:18;;;;;;;9.77;5.88;;;12.00;99.90;;;;;;5022790;28;20026;-81
2022/03/15 12:19:52;;;;;;;6.72;5.60;;;12.00;99.90;;;;;;5020885;28;20466;-81
2022/03/15 12:22:34;;;;;;;9.27;5.57;;;12.10;99.90;;;;;;5022425;28;20026;-80
2022/03/15 12:25:35;;;;;;;12.60;5.57;;;12.20;99.90;;;;;;5024514;28;20117;-81
2022/03/15 12:28:04;;;;;;;7.03;6.15;;;12.20;99.90;;;;;;5022263;28;20079;-81
2022/03/15 12:30:31;;;;;;;9.30;6.25;;;12.50;99.90;;;;;;5018426;28;20030;-81
2022/03/15 12:33:04;;;;;;;9.68;6.28;;;12.60;99.90;;;;;;5022280;28;20064;-81
2022/03/15 12:36:07;;;;;;;11.73;6.85;;;12.50;99.90;;;;;;5025870;28;20030;-81
2022/03/15 12:38:41;;;;;;;7.30;5.65;;;12.50;99.90;;;;;;5021643;28;20033;-80
2022/03/15 12:41:07;;;;;;;8.98;5.20;;;12.40;99.90;;;;;;5026070;28;20376;-81
2022/03/15 12:43:34;;;;;;;8.27;5.80;;;12.20;99.90;;;;;;5021994;28;20032;-81
2022/03/15 12:46:13;;;;;;;6.88;5.65;;;12.00;99.90;;;;;;5038579;28;20141;-81
2022/03/15 12:48:46;;;;;;;13.95;6.60;;;11.90;99.90;;;;;;5041391;28;20109;-80
2022/03/15 12:51:18;;;;;;;10.75;6.43;;;11.90;99.90;;;;;;5045545;28;20104;-81
2022/03/15 12:53:48;;;;;;;8.43;6.35;;;11.70;99.90;;;;;;5046487;28;20369;-81
2022/03/15 12:56:14;;;;;;;10.85;6.47;;;11.70;99.90;;;;;;5045547;28;20036;-81
2022/03/15 12:58:41;;;;;;;8.98;6.05;;;11.70;99.90;;;;;;5041145;28;20025;-80
2022/03/15 13:01:11;;;;;;;6.55;5.70;;;11.90;99.90;;;;;;5045385;28;20399;-81
2022/03/15 13:03:38;;;;;;;8.43;5.60;;;11.80;99.90;;;;;;5041259;28;20031;-81
2022/03/15 13:06:04;;;;;;;14.25;6.50;;;11.60;99.90;;;;;;5045378;28;20037;-81
2022/03/15 13:08:40;;;;;;;11.80;6.72;;;11.70;99.90;;;;;;5039934;28;20434;-81
2022/03/15 13:11:15;;;;;;;9.38;5.75;;;11.70;99.90;;;;;;5045286;28;20079;-80
2022/03/15 13:13:45;;;;;;;10.32;6.13;;;11.70;99.90;;;;;;5041083;28;20380;-80
2022/03/15 13:16:11;;;;;;;10.40;6.70;;;11.50;99.90;;;;;;5045405;28;20025;-82
2022/03/15 13:18:41;;;;;;;6.90;6.05;;;11.40;99.90;;;;;;5040926;28;20100;-82
2022/03/15 13:21:09;;;;;;;11.45;6.63;;;11.40;99.90;;;;;;5040016;28;20071;-81
2022/03/15 13:23:41;;;;;;;8.23;6.15;;;11.40;99.90;;;;;;5044191;28;20029;-81
2022/03/15 13:26:12;;;;;;;8.55;6.25;;;11.40;99.90;;;;;;5044890;28;20404;-81
2022/03/15 13:28:53;;;;;;;14.20;7.55;;;11.10;99.90;;;;;;5039487;28;20059;-81
2022/03/15 13:31:26;;;;;;;12.27;7.63;;;11.10;99.90;;;;;;5044668;28;20496;-81
2022/03/15 13:33:58;;;;;;;8.02;6.53;;;11.10;99.90;;;;;;5041036;28;20048;-80
2022/03/15 13:36:37;;;;;;;8.25;6.25;;;11.00;99.90;;;;;;5043461;28;20056;-81
2022/03/15 13:39:15;;;;;;;12.38;6.97;;;11.00;99.90;;;;;;5042282;28;20025;-80
2022/03/15 13:41:50;;;;;;;7.90;6.55;;;11.00;99.90;;;;;;5043246;28;20536;-81
2022/03/15 13:44:32;;;;;;;9.35;6.18;;;11.10;99.90;;;;;;5042947;28;20091;-81
2022/03/15 13:47:02;;;;;;;10.55;7.32;;;11.00;99.90;;;;;;5039091;28;20056;-81
2022/03/15 13:49:34;;;;;;;12.15;7.65;;;11.00;99.90;;;;;;5043750;28;20109;-81
2022/03/15 13:52:35;;;;;;;8.90;6.40;;;11.10;99.90;;;;;;5043001;28;20032;-81
2022/03/15 13:55:10;;;;;;;16.08;7.63;;;11.10;99.90;;;;;;5041227;28;20037;-80
2022/03/15 13:57:44;;;;;;;16.10;8.05;;;11.00;99.90;;;;;;5040454;28;20229;-80
2022/03/15 14:00:21;;;;;;;9.60;7.68;;;10.90;99.90;;;;;;5037950;28;20510;-81
2022/03/15 14:02:51;;;;;;;10.38;7.00;;;11.00;99.90;;;;;;5039107;28;20242;-80
2022/03/15 14:05:27;;;;;;;9.68;7.63;;;11.00;99.90;;;;;;5046353;28;20036;-81
2022/03/15 14:08:11;;;;;;;17.15;7.97;;;11.00;99.90;;;;;;5039485;28;20017;-81
2022/03/15 14:10:41;;;;;;;12.10;7.45;;;11.00;99.90;;;;;;5037142;28;20220;-82
2022/03/15 14:13:21;;;;;;;9.90;8.45;;;11.00;99.90;;;;;;5042487;28;20361;-81
2022/03/15 14:15:48;;;;;;;13.48;7.85;;;10.90;99.90;;;;;;5037370;28;20600;-81
2022/03/15 14:18:25;;;;;;;13.68;8.05;;;10.90;99.90;;;;;;5039839;28;20033;-81
2022/03/15 14:20:52;;;;;;;8.07;7.28;;;10.80;99.90;;;;;;5045002;28;20188;-81
2022/03/15 14:23:18;;;;;;;10.20;7.10;;;10.80;99.90;;;;;;5041433;28;20029;-81
2022/03/15 14:25:45;;;;;;;12.90;7.55;;;10.70;99.90;;;;;;5044165;28;20041;-80
2022/03/15 14:28:15;;;;;;;9.63;6.82;;;10.70;99.90;;;;;;5039370;28;20032;-81
2022/03/15 14:30:42;;;;;;;11.07;7.35;;;10.60;99.90;;;;;;5044278;28;20021;-81
2022/03/15 14:33:20;;;;;;;13.00;8.23;;;10.70;99.90;;;;;;5042758;28;20021;-81
2022/03/15 14:35:56;;;;;;;9.20;7.40;;;10.70;99.90;;;;;;5036031;28;20510;-81
2022/03/15 14:38:25;;;;;;;9.25;7.70;;;10.70;99.90;;;;;;5039568;28;20021;-81
2022/03/15 14:40:54;;;;;;;15.13;8.50;;;10.60;99.90;;;;;;5044861;28;20037;-81
2022/03/15 14:43:26;;;;;;;19.80;8.45;;;10.60;99.90;;;;;;5040612;28;20028;-81
2022/03/15 14:45:55;;;;;;;9.77;8.32;;;10.60;99.90;;;;;;5043494;28;20144;-81
2022/03/15 14:48:48;;;;;;;10.45;7.80;;;10.60;99.90;;;;;;5038963;28;20021;-81
2022/03/15 14:51:14;;;;;;;14.65;8.27;;;10.60;99.90;;;;;;5041813;28;20028;-81
2022/03/15 14:53:40;;;;;;;10.93;8.25;;;10.60;99.90;;;;;;5039459;28;20028;-81
2022/03/15 14:56:07;;;;;;;11.90;8.70;;;10.70;99.90;;;;;;5043515;28;20120;-81
2022/03/15 14:58:39;;;;;;;13.27;8.07;;;10.80;99.90;;;;;;5038168;28;20025;-81
2022/03/15 15:01:05;;;;;;;9.65;8.45;;;10.70;99.90;;;;;;5043896;28;20027;-81
2022/03/15 15:03:34;;;;;;;12.85;8.88;;;10.70;99.90;;;;;;5039149;28;20022;-82
2022/03/15 15:06:00;;;;;;;13.38;8.52;;;10.70;99.90;;;;;;5037686;28;20041;-81
2022/03/15 15:08:27;;;;;;;9.95;8.52;;;10.70;99.90;;;;;;5039008;28;20022;-82
2022/03/15 15:10:54;;;;;;;11.75;9.70;;;10.70;99.90;;;;;;5043390;28;20071;-81
2022/03/15 15:13:24;;;;;;;12.10;8.38;;;10.70;99.90;;;;;;5022640;28;20602;-88
2022/03/15 15:15:50;;;;;;;15.35;9.18;;;10.70;99.90;;;;;;5038441;28;20472;-83
2022/03/15 15:18:19;;;;;;;18.88;11.60;;;10.70;99.90;;;;;;5040153;28;20021;-82
2022/03/15 15:20:47;;;;;;;117.28;77.47;;;10.60;99.90;;;;;;5038566;28;20060;-81
2022/03/15 15:23:13;;;;;;;27.63;20.02;;;10.60;99.90;;;;;;5043607;28;20029;-82
2022/03/15 15:25:41;;;;;;;11.00;8.10;;;10.60;99.90;;;;;;5045592;28;20037;-83
2022/03/15 15:28:13;;;;;;;10.82;7.88;;;10.60;99.90;;;;;;5038838;28;20014;-85
2022/03/15 15:30:47;;;;;;;13.65;9.65;;;10.60;99.90;;;;;;5049082;28;20028;-85
2022/03/15 15:33:14;;;;;;;12.55;9.32;;;10.50;99.90;;;;;;5047830;28;20029;-84
2022/03/15 15:35:40;;;;;;;14.13;9.32;;;10.50;99.90;;;;;;5043525;28;20028;-84
2022/03/15 15:38:10;;;;;;;14.70;9.50;;;10.50;99.90;;;;;;5045525;28;20021;-84
2022/03/15 15:40:40;;;;;;;14.65;9.73;;;10.50;99.90;;;;;;5039998;28;20033;-83
2022/03/15 15:43:09;;;;;;;24.10;10.85;;;10.40;99.90;;;;;;5043033;28;20014;-82
2022/03/15 15:45:36;;;;;;;18.88;11.32;;;10.40;99.90;;;;;;5049685;28;20630;-82
2022/03/15 15:48:03;;;;;;;30.38;19.80;;;10.30;99.90;;;;;;5042131;28;20563;-82
2022/03/15 15:50:32;;;;;;;14.15;10.35;;;10.30;99.90;;;;;;5047300;28;20025;-83
2022/03/15 15:53:02;;;;;;;16.73;10.57;;;10.30;99.90;;;;;;5052150;28;20529;-82
2022/03/15 15:55:29;;;;;;;13.55;9.57;;;10.20;99.90;;;;;;5039038;28;20040;-80
2022/03/15 15:57:58;;;;;;;19.20;9.65;;;10.20;99.90;;;;;;5043839;28;20108;-82
2022/03/15 16:00:25;;;;;;;15.98;10.05;;;10.10;99.90;;;;;;5045500;28;20033;-82
2022/03/15 16:02:54;;;;;;;13.52;9.60;;;10.10;99.90;;;;;;5042513;28;20032;-84
2022/03/15 16:05:21;;;;;;;12.73;10.13;;;10.00;99.90;;;;;;5044451;28;20041;-84
2022/03/15 16:08:00;;;;;;;12.50;9.07;;;10.10;99.90;;;;;;5040421;28;20029;-84
2022/03/15 16:10:26;;;;;;;19.25;9.85;;;10.00;99.90;;;;;;5050753;28;20066;-86
2022/03/15 16:12:52;;;;;;;18.45;12.88;;;10.00;99.90;;;;;;5051708;28;20025;-84
2022/03/15 16:15:22;;;;;;;20.52;15.35;;;9.90;99.90;;;;;;5050427;28;20484;-82
2022/03/15 16:17:49;;;;;;;16.98;12.95;;;9.90;99.90;;;;;;5036599;28;20383;-82
2022/03/15 16:20:17;;;;;;;16.92;12.93;;;9.90;99.90;;;;;;5045210;28;20029;-83
2022/03/15 16:22:46;;;;;;;16.83;13.38;;;9.90;99.90;;;;;;5049296;28;20040;-84
2022/03/15 16:25:16;;;;;;;21.20;13.48;;;9.80;99.90;;;;;;5038214;28;20409;-84
2022/03/15 16:27:41;;;;;;;13.57;10.70;;;9.80;99.90;;;;;;5040928;28;20036;-81
2022/03/15 16:30:11;;;;;;;19.98;13.82;;;9.80;99.90;;;;;;5040476;28;20029;-79
2022/03/15 16:32:37;;;;;;;15.45;12.38;;;9.80;99.90;;;;;;5041437;28;20016;-79
2022/03/15 16:35:04;;;;;;;16.17;12.80;;;9.80;99.90;;;;;;5042326;28;20040;-83
2022/03/15 16:37:51;;;;;;;20.85;14.00;;;9.70;99.90;;;;;;5045629;28;20028;-88
2022/03/15 16:40:20;;;;;;;22.58;14.20;;;9.70;99.90;;;;;;5052341;28;20068;-86
2022/03/15 16:42:48;;;;;;;20.20;14.60;;;9.70;99.90;;;;;;5044017;28;20045;-83
2022/03/15 16:45:18;;;;;;;24.80;17.05;;;9.70;99.90;;;;;;5050511;28;20060;-87
2022/03/15 16:47:44;;;;;;;20.02;17.20;;;9.70;99.90;;;;;;5038192;28;20047;-81
2022/03/15 16:50:11;;;;;;;19.40;14.52;;;9.60;99.90;;;;;;5050098;28;20055;-85
2022/03/15 16:52:44;;;;;;;19.33;12.80;;;9.70;99.90;;;;;;5054946;28;20119;-88
2022/03/15 16:55:23;;;;;;;16.55;10.95;;;9.70;99.90;;;;;;5044849;28;20037;-91
2022/03/15 16:57:54;;;;;;;13.20;9.70;;;9.70;99.90;;;;;;5057082;28;20036;-88
2022/03/15 17:00:21;;;;;;;13.57;9.65;;;9.60;99.90;;;;;;5052040;28;20017;-83
2022/03/15 17:02:47;;;;;;;13.10;10.13;;;9.70;99.90;;;;;;5045112;28;20025;-85
2022/03/15 17:07:57;;;;;;;12.05;8.80;;;9.60;99.90;;;;;;5043663;28;20541;-82
2022/03/15 17:10:24;;;;;;;13.88;9.25;;;9.60;99.90;;;;;;5037093;28;20100;-80
2022/03/15 17:12:50;;;;;;;11.68;9.88;;;9.60;99.90;;;;;;5040298;28;20025;-80
2022/03/15 17:15:16;;;;;;;21.05;12.60;;;9.60;99.90;;;;;;5048599;28;20028;-82
2022/03/15 17:17:43;;;;;;;24.17;16.08;;;9.60;99.90;;;;;;5056459;28;20072;-86
2022/03/15 17:20:10;;;;;;;20.17;17.42;;;9.60;99.90;;;;;;5062321;28;20032;-85
2022/03/15 17:22:41;;;;;;;20.50;16.65;;;9.50;99.90;;;;;;5046194;28;20480;-89
2022/03/15 17:25:17;;;;;;;26.27;15.77;;;9.50;99.90;;;;;;5007993;28;20447;-84
2022/03/15 17:27:57;;;;;;;24.02;14.63;;;9.50;99.90;;;;;;5042759;28;20354;-90
2022/03/15 17:30:23;;;;;;;16.90;14.68;;;9.50;99.90;;;;;;5052226;28;20021;-83
2022/03/15 17:32:52;;;;;;;17.80;14.48;;;9.50;99.90;;;;;;5042035;28;20056;-84
2022/03/15 17:35:22;;;;;;;19.50;15.05;;;9.50;99.90;;;;;;5038214;28;20365;-86
2022/03/15 17:37:57;;;;;;;16.35;13.20;;;9.50;99.90;;;;;;5039192;28;20029;-82
2022/03/15 17:40:25;;;;;;;16.55;12.38;;;9.50;99.90;;;;;;5040272;28;20025;-84
2022/03/15 17:42:58;;;;;;;13.85;11.13;;;9.50;99.90;;;;;;5039918;28;20025;-83
2022/03/15 17:45:25;;;;;;;14.77;10.65;;;9.50;99.90;;;;;;5054237;28;20045;-88
2022/03/15 17:48:03;;;;;;;12.80;10.07;;;9.50;99.90;;;;;;5043033;28;20116;-89
2022/03/15 17:50:32;;;;;;;12.48;10.50;;;9.50;99.90;;;;;;5050756;28;20037;-85
2022/03/15 17:53:09;;;;;;;16.80;10.05;;;9.60;99.90;;;;;;5039062;28;20081;-85
2022/03/15 17:55:57;;;;;;;13.32;10.05;;;9.70;99.90;;;;;;5041173;28;20112;-85
2022/03/15 17:58:26;;;;;;;12.18;9.20;;;9.80;99.90;;;;;;5041919;28;20029;-85
2022/03/15 18:00:57;;;;;;;13.85;9.70;;;9.90;99.90;;;;;;5043377;28;20033;-85
2022/03/15 18:03:30;;;;;;;12.45;10.10;;;9.90;99.90;;;;;;5046897;28;20049;-83
2022/03/15 18:06:00;;;;;;;10.13;9.13;;;9.90;99.90;;;;;;5045297;28;20454;-85
2022/03/15 18:08:26;;;;;;;12.93;10.50;;;9.90;99.90;;;;;;5044245;28;20087;-85
2022/03/15 18:10:55;;;;;;;13.63;10.57;;;9.90;99.90;;;;;;5044024;28;20521;-86
2022/03/15 18:13:33;;;;;;;13.63;11.82;;;10.00;99.90;;;;;;5046513;28;20766;-85
2022/03/15 18:16:01;;;;;;;23.55;13.60;;;9.90;99.90;;;;;;5043288;28;20068;-86
2022/03/15 18:18:27;;;;;;;23.05;13.95;;;9.80;99.90;;;;;;5049332;28;20025;-85
2022/03/15 18:20:56;;;;;;;16.80;11.85;;;9.70;99.90;;;;;;5037111;28;20037;-85
2022/03/15 18:23:26;;;;;;;19.90;13.50;;;9.60;99.90;;;;;;5037988;28;20022;-85
2022/03/15 18:25:53;;;;;;;19.08;14.95;;;9.60;99.90;;;;;;5049496;28;20041;-85
2022/03/15 18:28:20;;;;;;;15.63;12.88;;;9.50;99.90;;;;;;5052099;28;20656;-85
2022/03/15 18:30:51;;;;;;;13.75;12.27;;;9.50;99.90;;;;;;5050153;28;20044;-85
2022/03/15 18:33:22;;;;;;;19.50;11.95;;;9.60;99.90;;;;;;5041726;28;20037;-84
2022/03/15 18:35:49;;;;;;;15.40;10.60;;;9.70;99.90;;;;;;5046354;28;20523;-84